sensor_id;sensor_type;location;lat;lon;timestamp;P1;durP1;ratioP1;P2;durP2;ratioP2
74528;SDS011;63009;52.584;5.932;2024-01-30T00:01:53;21.08;;;12.75;;
74528;SDS011;63009;52.584;5.932;2024-01-30T00:04:18;20.65;;;12.02;;
74528;SDS011;63009;52.584;5.932;2024-01-30T00:06:44;22.52;;;13.10;;
74528;SDS011;63009;52.584;5.932;2024-01-30T00:09:10;23.23;;;13.00;;
74528;SDS011;63009;52.584;5.932;2024-01-30T00:11:36;23.52;;;12.25;;
74528;SDS011;63009;52.584;5.932;2024-01-30T00:14:02;22.30;;;12.68;;
74528;SDS011;63009;52.584;5.932;2024-01-30T00:16:28;21.73;;;12.60;;
74528;SDS011;63009;52.584;5.932;2024-01-30T00:18:53;21.38;;;11.68;;
74528;SDS011;63009;52.584;5.932;2024-01-30T00:21:19;22.48;;;12.82;;
74528;SDS011;63009;52.584;5.932;2024-01-30T00:23:46;23.13;;;11.98;;
74528;SDS011;63009;52.584;5.932;2024-01-30T00:26:12;21.48;;;12.00;;
74528;SDS011;63009;52.584;5.932;2024-01-30T00:28:37;22.85;;;11.90;;
74528;SDS011;63009;52.584;5.932;2024-01-30T00:31:03;23.10;;;13.10;;
74528;SDS011;63009;52.584;5.932;2024-01-30T00:33:29;21.30;;;11.68;;
74528;SDS011;63009;52.584;5.932;2024-01-30T00:35:54;23.45;;;12.35;;
74528;SDS011;63009;52.584;5.932;2024-01-30T00:38:20;21.60;;;12.25;;
74528;SDS011;63009;52.584;5.932;2024-01-30T00:40:45;21.52;;;11.57;;
74528;SDS011;63009;52.584;5.932;2024-01-30T00:43:11;23.05;;;12.52;;
74528;SDS011;63009;52.584;5.932;2024-01-30T00:45:36;20.38;;;11.82;;
74528;SDS011;63009;52.584;5.932;2024-01-30T00:48:02;21.00;;;12.15;;
74528;SDS011;63009;52.584;5.932;2024-01-30T00:50:27;21.92;;;11.75;;
74528;SDS011;63009;52.584;5.932;2024-01-30T00:52:52;21.60;;;12.95;;
74528;SDS011;63009;52.584;5.932;2024-01-30T00:55:18;22.17;;;12.85;;
74528;SDS011;63009;52.584;5.932;2024-01-30T00:57:43;23.77;;;13.02;;
74528;SDS011;63009;52.584;5.932;2024-01-30T01:00:09;21.48;;;12.43;;
74528;SDS011;63009;52.584;5.932;2024-01-30T01:02:35;23.15;;;13.13;;
74528;SDS011;63009;52.584;5.932;2024-01-30T01:05:01;24.40;;;13.18;;
74528;SDS011;63009;52.584;5.932;2024-01-30T01:07:27;23.30;;;11.23;;
74528;SDS011;63009;52.584;5.932;2024-01-30T01:09:52;23.45;;;11.52;;
74528;SDS011;63009;52.584;5.932;2024-01-30T01:12:17;21.98;;;12.70;;
74528;SDS011;63009;52.584;5.932;2024-01-30T01:14:43;19.73;;;10.85;;
74528;SDS011;63009;52.584;5.932;2024-01-30T01:17:08;21.65;;;11.30;;
74528;SDS011;63009;52.584;5.932;2024-01-30T01:19:34;24.25;;;13.48;;
74528;SDS011;63009;52.584;5.932;2024-01-30T01:21:59;23.48;;;12.75;;
74528;SDS011;63009;52.584;5.932;2024-01-30T01:24:25;21.45;;;11.38;;
74528;SDS011;63009;52.584;5.932;2024-01-30T01:26:50;19.45;;;11.55;;
74528;SDS011;63009;52.584;5.932;2024-01-30T01:29:15;20.92;;;12.60;;
74528;SDS011;63009;52.584;5.932;2024-01-30T01:31:41;20.95;;;12.23;;
74528;SDS011;63009;52.584;5.932;2024-01-30T01:34:12;21.83;;;11.57;;
74528;SDS011;63009;52.584;5.932;2024-01-30T01:36:38;20.33;;;11.48;;
74528;SDS011;63009;52.584;5.932;2024-01-30T01:39:04;21.27;;;11.73;;
74528;SDS011;63009;52.584;5.932;2024-01-30T01:41:30;19.75;;;11.60;;
74528;SDS011;63009;52.584;5.932;2024-01-30T01:43:59;21.45;;;11.30;;
74528;SDS011;63009;52.584;5.932;2024-01-30T01:46:26;21.70;;;12.38;;
74528;SDS011;63009;52.584;5.932;2024-01-30T01:48:52;21.75;;;12.90;;
74528;SDS011;63009;52.584;5.932;2024-01-30T01:51:18;21.95;;;12.18;;
74528;SDS011;63009;52.584;5.932;2024-01-30T01:53:44;21.13;;;11.32;;
74528;SDS011;63009;52.584;5.932;2024-01-30T01:56:09;22.60;;;12.20;;
74528;SDS011;63009;52.584;5.932;2024-01-30T01:58:35;23.23;;;12.45;;
74528;SDS011;63009;52.584;5.932;2024-01-30T02:01:02;23.15;;;12.13;;
74528;SDS011;63009;52.584;5.932;2024-01-30T02:03:30;21.67;;;10.88;;
74528;SDS011;63009;52.584;5.932;2024-01-30T02:05:55;20.98;;;11.52;;
74528;SDS011;63009;52.584;5.932;2024-01-30T02:08:22;23.38;;;12.38;;
74528;SDS011;63009;52.584;5.932;2024-01-30T02:10:48;19.35;;;11.68;;
74528;SDS011;63009;52.584;5.932;2024-01-30T02:13:14;20.65;;;11.00;;
74528;SDS011;63009;52.584;5.932;2024-01-30T02:15:39;19.80;;;10.95;;
74528;SDS011;63009;52.584;5.932;2024-01-30T02:18:05;20.42;;;12.50;;
74528;SDS011;63009;52.584;5.932;2024-01-30T02:20:30;19.60;;;11.30;;
74528;SDS011;63009;52.584;5.932;2024-01-30T02:23:00;18.73;;;10.18;;
74528;SDS011;63009;52.584;5.932;2024-01-30T02:25:35;19.92;;;10.85;;
74528;SDS011;63009;52.584;5.932;2024-01-30T02:28:04;21.65;;;10.68;;
74528;SDS011;63009;52.584;5.932;2024-01-30T02:30:29;19.13;;;11.73;;
74528;SDS011;63009;52.584;5.932;2024-01-30T02:32:54;22.25;;;10.85;;
74528;SDS011;63009;52.584;5.932;2024-01-30T02:35:20;20.08;;;10.60;;
74528;SDS011;63009;52.584;5.932;2024-01-30T02:37:45;20.15;;;10.35;;
74528;SDS011;63009;52.584;5.932;2024-01-30T02:40:11;17.88;;;10.52;;
74528;SDS011;63009;52.584;5.932;2024-01-30T02:42:36;19.50;;;9.65;;
74528;SDS011;63009;52.584;5.932;2024-01-30T02:45:01;18.65;;;9.25;;
74528;SDS011;63009;52.584;5.932;2024-01-30T02:47:27;19.85;;;11.00;;
74528;SDS011;63009;52.584;5.932;2024-01-30T02:49:52;20.10;;;10.48;;
74528;SDS011;63009;52.584;5.932;2024-01-30T02:52:18;19.08;;;10.27;;
74528;SDS011;63009;52.584;5.932;2024-01-30T02:54:44;18.45;;;9.88;;
74528;SDS011;63009;52.584;5.932;2024-01-30T02:57:09;18.50;;;9.82;;
74528;SDS011;63009;52.584;5.932;2024-01-30T02:59:35;21.42;;;11.10;;
74528;SDS011;63009;52.584;5.932;2024-01-30T03:02:01;18.85;;;10.55;;
74528;SDS011;63009;52.584;5.932;2024-01-30T03:04:26;18.65;;;10.10;;
74528;SDS011;63009;52.584;5.932;2024-01-30T03:06:52;19.27;;;10.82;;
74528;SDS011;63009;52.584;5.932;2024-01-30T03:09:18;18.52;;;10.05;;
74528;SDS011;63009;52.584;5.932;2024-01-30T03:11:43;16.73;;;10.63;;
74528;SDS011;63009;52.584;5.932;2024-01-30T03:14:08;19.88;;;9.52;;
74528;SDS011;63009;52.584;5.932;2024-01-30T03:16:36;16.95;;;9.15;;
74528;SDS011;63009;52.584;5.932;2024-01-30T03:19:02;18.02;;;9.63;;
74528;SDS011;63009;52.584;5.932;2024-01-30T03:21:28;17.63;;;9.02;;
74528;SDS011;63009;52.584;5.932;2024-01-30T03:23:54;20.05;;;11.60;;
74528;SDS011;63009;52.584;5.932;2024-01-30T03:26:19;21.38;;;10.40;;
74528;SDS011;63009;52.584;5.932;2024-01-30T03:28:45;17.42;;;9.32;;
74528;SDS011;63009;52.584;5.932;2024-01-30T03:31:12;22.73;;;10.35;;
74528;SDS011;63009;52.584;5.932;2024-01-30T03:33:39;16.98;;;10.00;;
74528;SDS011;63009;52.584;5.932;2024-01-30T03:36:04;20.88;;;9.63;;
74528;SDS011;63009;52.584;5.932;2024-01-30T03:38:30;17.80;;;9.82;;
74528;SDS011;63009;52.584;5.932;2024-01-30T03:40:57;16.63;;;9.50;;
74528;SDS011;63009;52.584;5.932;2024-01-30T03:43:23;16.50;;;9.18;;
74528;SDS011;63009;52.584;5.932;2024-01-30T03:45:48;16.75;;;9.07;;
74528;SDS011;63009;52.584;5.932;2024-01-30T03:48:14;18.02;;;9.55;;
74528;SDS011;63009;52.584;5.932;2024-01-30T03:50:39;18.15;;;9.73;;
74528;SDS011;63009;52.584;5.932;2024-01-30T03:53:04;17.92;;;9.85;;
74528;SDS011;63009;52.584;5.932;2024-01-30T03:55:30;17.15;;;8.95;;
74528;SDS011;63009;52.584;5.932;2024-01-30T03:57:55;20.30;;;9.70;;
74528;SDS011;63009;52.584;5.932;2024-01-30T04:00:21;15.57;;;8.68;;
74528;SDS011;63009;52.584;5.932;2024-01-30T04:02:46;17.05;;;9.25;;
74528;SDS011;63009;52.584;5.932;2024-01-30T04:05:11;16.40;;;8.95;;
74528;SDS011;63009;52.584;5.932;2024-01-30T04:07:37;15.80;;;9.23;;
74528;SDS011;63009;52.584;5.932;2024-01-30T04:10:02;16.27;;;9.18;;
74528;SDS011;63009;52.584;5.932;2024-01-30T04:12:30;17.83;;;9.73;;
74528;SDS011;63009;52.584;5.932;2024-01-30T04:14:56;15.93;;;9.32;;
74528;SDS011;63009;52.584;5.932;2024-01-30T04:17:21;18.58;;;9.20;;
74528;SDS011;63009;52.584;5.932;2024-01-30T04:19:47;20.27;;;10.90;;
74528;SDS011;63009;52.584;5.932;2024-01-30T04:22:12;17.77;;;9.32;;
74528;SDS011;63009;52.584;5.932;2024-01-30T04:24:38;19.25;;;9.98;;
74528;SDS011;63009;52.584;5.932;2024-01-30T04:27:03;18.75;;;9.63;;
74528;SDS011;63009;52.584;5.932;2024-01-30T04:29:29;16.42;;;9.63;;
74528;SDS011;63009;52.584;5.932;2024-01-30T04:31:54;18.67;;;10.65;;
74528;SDS011;63009;52.584;5.932;2024-01-30T04:34:19;19.50;;;10.00;;
74528;SDS011;63009;52.584;5.932;2024-01-30T04:36:45;15.85;;;9.23;;
74528;SDS011;63009;52.584;5.932;2024-01-30T04:39:11;18.63;;;10.30;;
74528;SDS011;63009;52.584;5.932;2024-01-30T04:41:37;17.80;;;10.27;;
74528;SDS011;63009;52.584;5.932;2024-01-30T04:44:03;22.10;;;10.50;;
74528;SDS011;63009;52.584;5.932;2024-01-30T04:46:28;17.35;;;9.18;;
74528;SDS011;63009;52.584;5.932;2024-01-30T04:48:54;17.65;;;9.57;;
74528;SDS011;63009;52.584;5.932;2024-01-30T04:51:19;19.88;;;9.25;;
74528;SDS011;63009;52.584;5.932;2024-01-30T04:53:45;20.23;;;9.88;;
74528;SDS011;63009;52.584;5.932;2024-01-30T04:56:10;18.23;;;9.45;;
74528;SDS011;63009;52.584;5.932;2024-01-30T04:58:35;20.73;;;9.57;;
74528;SDS011;63009;52.584;5.932;2024-01-30T05:01:01;18.45;;;9.52;;
74528;SDS011;63009;52.584;5.932;2024-01-30T05:03:27;17.00;;;9.38;;
74528;SDS011;63009;52.584;5.932;2024-01-30T05:05:52;16.88;;;10.00;;
74528;SDS011;63009;52.584;5.932;2024-01-30T05:08:18;16.88;;;9.18;;
74528;SDS011;63009;52.584;5.932;2024-01-30T05:10:43;19.02;;;8.27;;
74528;SDS011;63009;52.584;5.932;2024-01-30T05:13:12;17.25;;;9.70;;
74528;SDS011;63009;52.584;5.932;2024-01-30T05:15:38;16.92;;;8.85;;
74528;SDS011;63009;52.584;5.932;2024-01-30T05:18:04;16.50;;;8.55;;
74528;SDS011;63009;52.584;5.932;2024-01-30T05:20:29;17.67;;;8.95;;
74528;SDS011;63009;52.584;5.932;2024-01-30T05:22:55;16.75;;;8.68;;
74528;SDS011;63009;52.584;5.932;2024-01-30T05:25:21;20.92;;;9.50;;
74528;SDS011;63009;52.584;5.932;2024-01-30T05:27:46;16.85;;;9.10;;
74528;SDS011;63009;52.584;5.932;2024-01-30T05:30:12;18.88;;;9.07;;
74528;SDS011;63009;52.584;5.932;2024-01-30T05:32:38;18.90;;;9.05;;
74528;SDS011;63009;52.584;5.932;2024-01-30T05:35:03;19.33;;;9.88;;
74528;SDS011;63009;52.584;5.932;2024-01-30T05:37:29;17.83;;;9.00;;
74528;SDS011;63009;52.584;5.932;2024-01-30T05:39:54;17.35;;;9.02;;
74528;SDS011;63009;52.584;5.932;2024-01-30T05:42:19;15.93;;;9.30;;
74528;SDS011;63009;52.584;5.932;2024-01-30T05:44:45;15.50;;;8.02;;
74528;SDS011;63009;52.584;5.932;2024-01-30T05:47:10;16.20;;;8.18;;
74528;SDS011;63009;52.584;5.932;2024-01-30T05:49:36;17.48;;;8.48;;
74528;SDS011;63009;52.584;5.932;2024-01-30T05:52:02;16.90;;;8.50;;
74528;SDS011;63009;52.584;5.932;2024-01-30T05:54:28;16.02;;;8.82;;
74528;SDS011;63009;52.584;5.932;2024-01-30T05:56:54;16.77;;;9.25;;
74528;SDS011;63009;52.584;5.932;2024-01-30T05:59:19;14.65;;;7.65;;
74528;SDS011;63009;52.584;5.932;2024-01-30T06:01:45;16.98;;;8.18;;
74528;SDS011;63009;52.584;5.932;2024-01-30T06:04:12;16.27;;;8.25;;
74528;SDS011;63009;52.584;5.932;2024-01-30T06:06:37;18.70;;;7.78;;
74528;SDS011;63009;52.584;5.932;2024-01-30T06:09:02;17.10;;;8.02;;
74528;SDS011;63009;52.584;5.932;2024-01-30T06:11:28;16.15;;;7.88;;
74528;SDS011;63009;52.584;5.932;2024-01-30T06:13:53;15.07;;;7.72;;
74528;SDS011;63009;52.584;5.932;2024-01-30T06:16:18;14.57;;;7.20;;
74528;SDS011;63009;52.584;5.932;2024-01-30T06:18:46;15.63;;;8.50;;
74528;SDS011;63009;52.584;5.932;2024-01-30T06:21:11;13.73;;;7.32;;
74528;SDS011;63009;52.584;5.932;2024-01-30T06:23:37;14.45;;;7.32;;
74528;SDS011;63009;52.584;5.932;2024-01-30T06:26:02;15.27;;;7.18;;
74528;SDS011;63009;52.584;5.932;2024-01-30T06:28:28;15.18;;;7.57;;
74528;SDS011;63009;52.584;5.932;2024-01-30T06:30:53;16.05;;;7.80;;
74528;SDS011;63009;52.584;5.932;2024-01-30T06:33:19;17.42;;;8.32;;
74528;SDS011;63009;52.584;5.932;2024-01-30T06:35:44;17.95;;;7.75;;
74528;SDS011;63009;52.584;5.932;2024-01-30T06:38:10;15.45;;;7.82;;
74528;SDS011;63009;52.584;5.932;2024-01-30T06:40:36;14.38;;;7.35;;
74528;SDS011;63009;52.584;5.932;2024-01-30T06:43:02;15.18;;;7.43;;
74528;SDS011;63009;52.584;5.932;2024-01-30T06:45:29;15.18;;;8.10;;
74528;SDS011;63009;52.584;5.932;2024-01-30T06:47:54;15.32;;;7.88;;
74528;SDS011;63009;52.584;5.932;2024-01-30T06:50:20;18.77;;;8.85;;
74528;SDS011;63009;52.584;5.932;2024-01-30T06:52:45;15.32;;;8.10;;
74528;SDS011;63009;52.584;5.932;2024-01-30T06:55:11;14.32;;;7.18;;
74528;SDS011;63009;52.584;5.932;2024-01-30T06:57:36;16.10;;;8.00;;
74528;SDS011;63009;52.584;5.932;2024-01-30T07:00:02;15.00;;;7.55;;
74528;SDS011;63009;52.584;5.932;2024-01-30T07:02:27;14.90;;;7.75;;
74528;SDS011;63009;52.584;5.932;2024-01-30T07:04:53;15.98;;;7.95;;
74528;SDS011;63009;52.584;5.932;2024-01-30T07:07:18;18.17;;;8.50;;
74528;SDS011;63009;52.584;5.932;2024-01-30T07:09:44;15.32;;;8.02;;
74528;SDS011;63009;52.584;5.932;2024-01-30T07:12:09;16.40;;;7.82;;
74528;SDS011;63009;52.584;5.932;2024-01-30T07:14:35;14.25;;;6.68;;
74528;SDS011;63009;52.584;5.932;2024-01-30T07:17:00;17.42;;;8.13;;
74528;SDS011;63009;52.584;5.932;2024-01-30T07:19:26;15.48;;;7.80;;
74528;SDS011;63009;52.584;5.932;2024-01-30T07:21:51;15.73;;;7.72;;
74528;SDS011;63009;52.584;5.932;2024-01-30T07:24:16;14.52;;;7.80;;
74528;SDS011;63009;52.584;5.932;2024-01-30T07:26:42;17.52;;;7.82;;
74528;SDS011;63009;52.584;5.932;2024-01-30T07:29:07;15.50;;;8.93;;
74528;SDS011;63009;52.584;5.932;2024-01-30T07:31:33;15.30;;;7.90;;
74528;SDS011;63009;52.584;5.932;2024-01-30T07:33:58;15.73;;;7.53;;
74528;SDS011;63009;52.584;5.932;2024-01-30T07:36:23;14.10;;;6.97;;
74528;SDS011;63009;52.584;5.932;2024-01-30T07:38:49;13.27;;;7.50;;
74528;SDS011;63009;52.584;5.932;2024-01-30T07:41:14;14.00;;;7.38;;
74528;SDS011;63009;52.584;5.932;2024-01-30T07:43:39;13.07;;;6.82;;
74528;SDS011;63009;52.584;5.932;2024-01-30T07:46:05;13.10;;;6.82;;
74528;SDS011;63009;52.584;5.932;2024-01-30T07:48:31;14.45;;;7.63;;
74528;SDS011;63009;52.584;5.932;2024-01-30T07:50:59;15.30;;;7.80;;
74528;SDS011;63009;52.584;5.932;2024-01-30T07:53:25;13.82;;;6.47;;
74528;SDS011;63009;52.584;5.932;2024-01-30T07:55:52;14.57;;;7.78;;
74528;SDS011;63009;52.584;5.932;2024-01-30T07:58:17;13.88;;;6.80;;
74528;SDS011;63009;52.584;5.932;2024-01-30T08:00:43;15.60;;;7.72;;
74528;SDS011;63009;52.584;5.932;2024-01-30T08:03:08;16.98;;;7.80;;
74528;SDS011;63009;52.584;5.932;2024-01-30T08:05:33;15.73;;;7.57;;
74528;SDS011;63009;52.584;5.932;2024-01-30T08:07:59;15.25;;;7.47;;
74528;SDS011;63009;52.584;5.932;2024-01-30T08:10:24;15.23;;;7.45;;
74528;SDS011;63009;52.584;5.932;2024-01-30T08:12:49;18.50;;;8.40;;
74528;SDS011;63009;52.584;5.932;2024-01-30T08:15:15;16.42;;;7.32;;
74528;SDS011;63009;52.584;5.932;2024-01-30T08:17:40;13.30;;;6.97;;
74528;SDS011;63009;52.584;5.932;2024-01-30T08:20:06;16.17;;;7.55;;
74528;SDS011;63009;52.584;5.932;2024-01-30T08:22:33;14.68;;;7.45;;
74528;SDS011;63009;52.584;5.932;2024-01-30T08:24:58;15.15;;;7.68;;
74528;SDS011;63009;52.584;5.932;2024-01-30T08:27:24;15.05;;;8.02;;
74528;SDS011;63009;52.584;5.932;2024-01-30T08:29:49;16.17;;;8.30;;
74528;SDS011;63009;52.584;5.932;2024-01-30T08:32:15;15.20;;;8.38;;
74528;SDS011;63009;52.584;5.932;2024-01-30T08:34:40;16.60;;;8.80;;
74528;SDS011;63009;52.584;5.932;2024-01-30T08:37:06;13.95;;;7.35;;
74528;SDS011;63009;52.584;5.932;2024-01-30T08:39:31;18.35;;;7.53;;
74528;SDS011;63009;52.584;5.932;2024-01-30T08:41:56;14.90;;;7.53;;
74528;SDS011;63009;52.584;5.932;2024-01-30T08:44:22;14.32;;;7.47;;
74528;SDS011;63009;52.584;5.932;2024-01-30T08:46:48;15.35;;;7.07;;
74528;SDS011;63009;52.584;5.932;2024-01-30T08:49:16;13.23;;;7.72;;
74528;SDS011;63009;52.584;5.932;2024-01-30T08:51:41;15.32;;;7.90;;
74528;SDS011;63009;52.584;5.932;2024-01-30T08:54:07;16.13;;;7.35;;
74528;SDS011;63009;52.584;5.932;2024-01-30T08:56:32;14.93;;;7.05;;
74528;SDS011;63009;52.584;5.932;2024-01-30T08:58:58;16.10;;;7.18;;
74528;SDS011;63009;52.584;5.932;2024-01-30T09:01:23;13.60;;;6.97;;
74528;SDS011;63009;52.584;5.932;2024-01-30T09:03:50;16.92;;;7.65;;
74528;SDS011;63009;52.584;5.932;2024-01-30T09:06:15;15.15;;;7.53;;
74528;SDS011;63009;52.584;5.932;2024-01-30T09:08:40;16.33;;;8.52;;
74528;SDS011;63009;52.584;5.932;2024-01-30T09:11:09;14.35;;;6.93;;
74528;SDS011;63009;52.584;5.932;2024-01-30T09:13:35;14.73;;;7.70;;
74528;SDS011;63009;52.584;5.932;2024-01-30T09:16:01;20.92;;;7.85;;
74528;SDS011;63009;52.584;5.932;2024-01-30T09:18:26;15.20;;;6.60;;
74528;SDS011;63009;52.584;5.932;2024-01-30T09:20:52;18.45;;;7.20;;
74528;SDS011;63009;52.584;5.932;2024-01-30T09:23:17;14.43;;;7.43;;
74528;SDS011;63009;52.584;5.932;2024-01-30T09:25:44;14.00;;;6.97;;
74528;SDS011;63009;52.584;5.932;2024-01-30T09:28:10;14.75;;;7.90;;
74528;SDS011;63009;52.584;5.932;2024-01-30T09:30:35;16.75;;;8.00;;
74528;SDS011;63009;52.584;5.932;2024-01-30T09:33:01;14.18;;;7.60;;
74528;SDS011;63009;52.584;5.932;2024-01-30T09:35:26;15.52;;;7.72;;
74528;SDS011;63009;52.584;5.932;2024-01-30T09:37:51;16.17;;;7.97;;
74528;SDS011;63009;52.584;5.932;2024-01-30T09:40:18;15.30;;;7.03;;
74528;SDS011;63009;52.584;5.932;2024-01-30T09:42:44;17.17;;;7.85;;
74528;SDS011;63009;52.584;5.932;2024-01-30T09:45:15;14.43;;;7.35;;
74528;SDS011;63009;52.584;5.932;2024-01-30T09:47:42;18.88;;;8.30;;
74528;SDS011;63009;52.584;5.932;2024-01-30T09:50:09;19.15;;;8.25;;
74528;SDS011;63009;52.584;5.932;2024-01-30T09:52:38;19.23;;;7.80;;
74528;SDS011;63009;52.584;5.932;2024-01-30T09:55:04;19.10;;;8.45;;
74528;SDS011;63009;52.584;5.932;2024-01-30T09:57:31;16.75;;;7.50;;
74528;SDS011;63009;52.584;5.932;2024-01-30T09:59:57;18.15;;;8.15;;
74528;SDS011;63009;52.584;5.932;2024-01-30T10:02:23;17.33;;;8.75;;
74528;SDS011;63009;52.584;5.932;2024-01-30T10:04:49;17.27;;;8.35;;
74528;SDS011;63009;52.584;5.932;2024-01-30T10:07:15;16.60;;;8.00;;
74528;SDS011;63009;52.584;5.932;2024-01-30T10:09:41;17.58;;;7.20;;
74528;SDS011;63009;52.584;5.932;2024-01-30T10:12:07;16.00;;;8.77;;
74528;SDS011;63009;52.584;5.932;2024-01-30T10:14:34;14.65;;;7.13;;
74528;SDS011;63009;52.584;5.932;2024-01-30T10:17:03;16.67;;;8.27;;
74528;SDS011;63009;52.584;5.932;2024-01-30T10:19:29;15.90;;;8.15;;
74528;SDS011;63009;52.584;5.932;2024-01-30T10:21:54;19.17;;;8.05;;
74528;SDS011;63009;52.584;5.932;2024-01-30T10:24:23;17.95;;;7.85;;
74528;SDS011;63009;52.584;5.932;2024-01-30T10:26:49;16.27;;;8.00;;
74528;SDS011;63009;52.584;5.932;2024-01-30T10:29:14;16.33;;;7.53;;
74528;SDS011;63009;52.584;5.932;2024-01-30T10:31:40;13.63;;;6.93;;
74528;SDS011;63009;52.584;5.932;2024-01-30T10:34:05;16.67;;;7.20;;
74528;SDS011;63009;52.584;5.932;2024-01-30T10:36:30;17.63;;;8.38;;
74528;SDS011;63009;52.584;5.932;2024-01-30T10:39:04;16.75;;;7.05;;
74528;SDS011;63009;52.584;5.932;2024-01-30T10:41:31;17.58;;;8.45;;
74528;SDS011;63009;52.584;5.932;2024-01-30T10:44:21;18.20;;;7.35;;
74528;SDS011;63009;52.584;5.932;2024-01-30T10:46:51;17.10;;;7.80;;
74528;SDS011;63009;52.584;5.932;2024-01-30T10:49:25;15.57;;;7.55;;
74528;SDS011;63009;52.584;5.932;2024-01-30T10:51:51;14.68;;;6.63;;
74528;SDS011;63009;52.584;5.932;2024-01-30T10:54:17;15.60;;;8.10;;
74528;SDS011;63009;52.584;5.932;2024-01-30T10:56:44;15.07;;;8.02;;
74528;SDS011;63009;52.584;5.932;2024-01-30T10:59:09;14.60;;;7.55;;
74528;SDS011;63009;52.584;5.932;2024-01-30T11:01:38;14.27;;;7.95;;
74528;SDS011;63009;52.584;5.932;2024-01-30T11:04:04;14.23;;;7.30;;
74528;SDS011;63009;52.584;5.932;2024-01-30T11:06:29;14.90;;;7.47;;
74528;SDS011;63009;52.584;5.932;2024-01-30T11:09:01;12.15;;;6.03;;
74528;SDS011;63009;52.584;5.932;2024-01-30T11:11:29;13.70;;;6.20;;
74528;SDS011;63009;52.584;5.932;2024-01-30T11:13:54;10.82;;;6.00;;
74528;SDS011;63009;52.584;5.932;2024-01-30T11:16:20;11.45;;;5.88;;
74528;SDS011;63009;52.584;5.932;2024-01-30T11:18:49;12.73;;;6.03;;
74528;SDS011;63009;52.584;5.932;2024-01-30T11:21:16;12.98;;;5.95;;
74528;SDS011;63009;52.584;5.932;2024-01-30T11:23:42;13.82;;;5.85;;
74528;SDS011;63009;52.584;5.932;2024-01-30T11:26:10;13.25;;;5.80;;
74528;SDS011;63009;52.584;5.932;2024-01-30T11:28:36;11.75;;;6.28;;
74528;SDS011;63009;52.584;5.932;2024-01-30T11:31:03;13.98;;;6.15;;
74528;SDS011;63009;52.584;5.932;2024-01-30T11:33:32;15.00;;;5.75;;
74528;SDS011;63009;52.584;5.932;2024-01-30T11:35:58;14.05;;;6.20;;
74528;SDS011;63009;52.584;5.932;2024-01-30T11:38:31;11.95;;;6.80;;
74528;SDS011;63009;52.584;5.932;2024-01-30T11:40:57;12.90;;;6.85;;
74528;SDS011;63009;52.584;5.932;2024-01-30T11:43:23;12.48;;;6.45;;
74528;SDS011;63009;52.584;5.932;2024-01-30T11:45:48;12.18;;;6.07;;
74528;SDS011;63009;52.584;5.932;2024-01-30T11:48:14;13.13;;;5.35;;
74528;SDS011;63009;52.584;5.932;2024-01-30T11:50:40;10.90;;;4.68;;
74528;SDS011;63009;52.584;5.932;2024-01-30T11:53:15;10.02;;;4.30;;
74528;SDS011;63009;52.584;5.932;2024-01-30T11:55:41;12.32;;;4.00;;
74528;SDS011;63009;52.584;5.932;2024-01-30T11:58:07;12.75;;;4.80;;
74528;SDS011;63009;52.584;5.932;2024-01-30T12:00:32;11.13;;;4.20;;
74528;SDS011;63009;52.584;5.932;2024-01-30T12:02:58;12.65;;;4.20;;
74528;SDS011;63009;52.584;5.932;2024-01-30T12:07:52;8.95;;;3.63;;
74528;SDS011;63009;52.584;5.932;2024-01-30T12:10:18;11.52;;;4.28;;
74528;SDS011;63009;52.584;5.932;2024-01-30T12:12:47;10.20;;;3.33;;
74528;SDS011;63009;52.584;5.932;2024-01-30T12:15:14;11.02;;;2.92;;
74528;SDS011;63009;52.584;5.932;2024-01-30T12:17:41;10.55;;;3.17;;
74528;SDS011;63009;52.584;5.932;2024-01-30T12:22:36;7.38;;;2.83;;
74528;SDS011;63009;52.584;5.932;2024-01-30T12:25:20;7.93;;;3.03;;
74528;SDS011;63009;52.584;5.932;2024-01-30T12:27:46;9.30;;;3.28;;
74528;SDS011;63009;52.584;5.932;2024-01-30T12:30:16;8.95;;;3.08;;
74528;SDS011;63009;52.584;5.932;2024-01-30T12:32:45;10.63;;;3.22;;
74528;SDS011;63009;52.584;5.932;2024-01-30T12:35:12;8.10;;;2.88;;
74528;SDS011;63009;52.584;5.932;2024-01-30T12:37:39;10.32;;;3.08;;
74528;SDS011;63009;52.584;5.932;2024-01-30T12:40:05;8.13;;;3.08;;
74528;SDS011;63009;52.584;5.932;2024-01-30T12:42:32;8.48;;;2.83;;
74528;SDS011;63009;52.584;5.932;2024-01-30T12:44:58;8.80;;;3.10;;
74528;SDS011;63009;52.584;5.932;2024-01-30T12:47:24;10.48;;;2.70;;
74528;SDS011;63009;52.584;5.932;2024-01-30T12:49:49;7.82;;;2.65;;
74528;SDS011;63009;52.584;5.932;2024-01-30T12:52:18;7.75;;;2.72;;
74528;SDS011;63009;52.584;5.932;2024-01-30T12:54:44;8.05;;;2.28;;
74528;SDS011;63009;52.584;5.932;2024-01-30T12:57:10;6.18;;;2.13;;
74528;SDS011;63009;52.584;5.932;2024-01-30T12:59:35;6.38;;;2.20;;
74528;SDS011;63009;52.584;5.932;2024-01-30T13:02:01;7.63;;;2.10;;
74528;SDS011;63009;52.584;5.932;2024-01-30T13:04:28;7.00;;;2.03;;
74528;SDS011;63009;52.584;5.932;2024-01-30T13:06:53;8.48;;;2.00;;
74528;SDS011;63009;52.584;5.932;2024-01-30T13:09:19;6.80;;;1.90;;
74528;SDS011;63009;52.584;5.932;2024-01-30T13:11:45;7.03;;;2.22;;
74528;SDS011;63009;52.584;5.932;2024-01-30T13:14:10;8.63;;;1.98;;
74528;SDS011;63009;52.584;5.932;2024-01-30T13:16:36;8.63;;;2.08;;
74528;SDS011;63009;52.584;5.932;2024-01-30T13:19:01;6.53;;;2.10;;
74528;SDS011;63009;52.584;5.932;2024-01-30T13:21:27;5.38;;;1.60;;
74528;SDS011;63009;52.584;5.932;2024-01-30T13:23:53;7.03;;;2.20;;
74528;SDS011;63009;52.584;5.932;2024-01-30T13:26:20;7.70;;;2.67;;
74528;SDS011;63009;52.584;5.932;2024-01-30T13:28:46;7.32;;;2.10;;
74528;SDS011;63009;52.584;5.932;2024-01-30T13:31:12;7.85;;;2.58;;
74528;SDS011;63009;52.584;5.932;2024-01-30T13:33:37;6.47;;;1.83;;
74528;SDS011;63009;52.584;5.932;2024-01-30T13:36:03;4.95;;;1.55;;
74528;SDS011;63009;52.584;5.932;2024-01-30T13:38:28;5.57;;;1.42;;
74528;SDS011;63009;52.584;5.932;2024-01-30T13:40:54;6.82;;;1.70;;
74528;SDS011;63009;52.584;5.932;2024-01-30T13:43:19;5.30;;;1.55;;
74528;SDS011;63009;52.584;5.932;2024-01-30T13:45:44;6.75;;;1.85;;
74528;SDS011;63009;52.584;5.932;2024-01-30T13:48:11;6.90;;;1.70;;
74528;SDS011;63009;52.584;5.932;2024-01-30T13:50:36;5.93;;;1.58;;
74528;SDS011;63009;52.584;5.932;2024-01-30T13:53:02;6.90;;;2.05;;
74528;SDS011;63009;52.584;5.932;2024-01-30T13:55:29;6.63;;;2.08;;
74528;SDS011;63009;52.584;5.932;2024-01-30T13:57:54;5.45;;;1.88;;
74528;SDS011;63009;52.584;5.932;2024-01-30T14:00:20;7.68;;;2.67;;
74528;SDS011;63009;52.584;5.932;2024-01-30T14:02:47;7.50;;;2.10;;
74528;SDS011;63009;52.584;5.932;2024-01-30T14:05:12;7.15;;;2.72;;
74528;SDS011;63009;52.584;5.932;2024-01-30T14:07:39;6.85;;;2.40;;
74528;SDS011;63009;52.584;5.932;2024-01-30T14:10:05;7.45;;;2.30;;
74528;SDS011;63009;52.584;5.932;2024-01-30T14:12:31;10.88;;;2.60;;
74528;SDS011;63009;52.584;5.932;2024-01-30T14:14:56;6.40;;;2.83;;
74528;SDS011;63009;52.584;5.932;2024-01-30T14:17:22;6.70;;;2.17;;
74528;SDS011;63009;52.584;5.932;2024-01-30T14:19:47;8.80;;;2.45;;
74528;SDS011;63009;52.584;5.932;2024-01-30T14:22:12;7.88;;;2.90;;
74528;SDS011;63009;52.584;5.932;2024-01-30T14:24:38;9.20;;;3.15;;
74528;SDS011;63009;52.584;5.932;2024-01-30T14:27:03;10.88;;;3.25;;
74528;SDS011;63009;52.584;5.932;2024-01-30T14:29:29;8.75;;;3.00;;
74528;SDS011;63009;52.584;5.932;2024-01-30T14:31:54;8.25;;;3.00;;